Time;durP1;ratioP1;P1;durP2;ratioP2;P2;SDS_P1;SDS_P2;PMS_P1;PMS_P2;Temp;Humidity;BMP_temperature;BMP_pressure;BME280_temperature;BME280_humidity;BME280_pressure;Samples;Min_cycle;Max_cycle;Signal;HPM_P1;HPM_P2
2023/05/26 00:01:46;;;;;;;;;2.25;1.00;;;;;9.76;72.83;101047.78;5119639;28;8844;-60
2023/05/26 00:04:17;;;;;;;;;2.00;2.00;;;;;9.71;72.71;101052.53;5119262;28;8858;-60
2023/05/26 00:06:46;;;;;;;;;1.00;1.00;;;;;9.67;72.81;101054.53;5119243;28;8815;-60
2023/05/26 00:09:13;;;;;;;;;4.00;3.00;;;;;9.63;72.78;101057.47;5119440;28;8823;-60
2023/05/26 00:11:41;;;;;;;;;3.00;1.50;;;;;9.59;72.77;101058.56;5119413;28;8844;-59
2023/05/26 00:14:10;;;;;;;;;3.00;3.00;;;;;9.58;73.09;101054.19;5119325;28;8850;-61
2023/05/26 00:16:38;;;;;;;;;3.50;3.50;;;;;9.62;72.97;101053.94;5118839;28;8832;-62
2023/05/26 00:19:07;;;;;;;;;1.50;1.00;;;;;9.67;72.87;101058.97;5119438;28;8929;-61
2023/05/26 00:21:35;;;;;;;;;3.50;3.00;;;;;9.72;72.76;101051.59;5118892;28;8843;-60
2023/05/26 00:24:03;;;;;;;;;3.00;3.00;;;;;9.75;72.40;101052.28;5118686;28;8832;-60
2023/05/26 00:26:31;;;;;;;;;3.25;3.25;;;;;9.80;72.50;101059.97;5118907;28;8827;-60
2023/05/26 00:28:59;;;;;;;;;1.00;1.00;;;;;9.81;72.34;101064.34;5118931;28;8827;-61
2023/05/26 00:31:27;;;;;;;;;3.00;3.00;;;;;9.83;72.39;101063.31;5117530;28;8828;-61
2023/05/26 00:33:54;;;;;;;;;0.00;0.00;;;;;9.84;72.38;101061.50;5118605;28;8843;-61
2023/05/26 00:36:22;;;;;;;;;3.00;1.00;;;;;9.85;72.25;101064.06;5118656;28;8946;-61
2023/05/26 00:38:50;;;;;;;;;6.00;4.00;;;;;9.85;72.66;101061.41;5118805;28;9636;-62
2023/05/26 00:41:17;;;;;;;;;3.00;3.00;;;;;9.84;72.26;101067.69;5118724;28;8823;-61
2023/05/26 00:43:45;;;;;;;;;2.50;2.50;;;;;9.81;72.63;101059.88;5118488;28;8943;-59
2023/05/26 00:46:13;;;;;;;;;6.25;4.00;;;;;9.75;72.40;101057.59;5118436;28;8998;-61
2023/05/26 00:48:41;;;;;;;;;1.00;1.00;;;;;9.68;72.94;101058.03;5118381;28;9501;-60
2023/05/26 00:51:11;;;;;;;;;0.75;0.50;;;;;9.59;72.86;101062.09;5118380;28;8834;-60
2023/05/26 00:53:39;;;;;;;;;2.00;2.00;;;;;9.52;72.81;101070.50;5118434;28;8816;-60
2023/05/26 00:56:07;;;;;;;;;1.50;0.75;;;;;9.45;73.25;101063.81;5118673;28;8855;-60
2023/05/26 00:58:35;;;;;;;;;2.00;2.00;;;;;9.37;72.91;101066.06;5118381;28;8954;-60
2023/05/26 01:01:03;;;;;;;;;2.00;2.00;;;;;9.32;73.56;101066.31;5118178;28;8811;-61
2023/05/26 01:03:30;;;;;;;;;3.00;2.00;;;;;9.26;73.68;101069.31;5118229;28;8928;-60
2023/05/26 01:05:58;;;;;;;;;2.25;2.00;;;;;9.22;73.48;101067.78;5118316;28;8909;-60
2023/05/26 01:08:26;;;;;;;;;1.50;1.50;;;;;9.15;73.41;101061.09;5118511;28;8943;-61
2023/05/26 01:10:54;;;;;;;;;4.00;2.00;;;;;9.11;73.69;101064.84;5118299;28;8812;-60
2023/05/26 01:13:22;;;;;;;;;1.00;1.00;;;;;9.06;73.67;101061.63;5117792;28;9489;-60
2023/05/26 01:15:49;;;;;;;;;2.50;2.50;;;;;9.02;73.59;101064.50;5117883;28;8816;-62
2023/05/26 01:18:20;;;;;;;;;0.50;0.50;;;;;8.98;73.93;101069.13;5117443;28;8852;-59
2023/05/26 01:20:48;;;;;;;;;2.00;2.00;;;;;8.97;74.10;101069.22;5117301;28;8808;-60
2023/05/26 01:23:16;;;;;;;;;2.50;1.00;;;;;8.95;73.79;101068.47;5117557;28;8855;-59
2023/05/26 01:25:46;;;;;;;;;1.50;0.75;;;;;8.93;73.84;101076.50;5117617;28;8816;-60
2023/05/26 01:28:14;;;;;;;;;1.00;0.50;;;;;8.92;73.93;101077.47;5117723;28;8834;-59
2023/05/26 01:30:43;;;;;;;;;0.75;0.75;;;;;8.89;73.36;101080.25;5117466;28;8967;-60
2023/05/26 01:33:11;;;;;;;;;1.00;1.00;;;;;8.88;74.35;101081.19;5117760;28;8857;-60
2023/05/26 01:35:39;;;;;;;;;0.50;0.50;;;;;8.86;73.70;101080.44;5118009;28;8872;-61
2023/05/26 01:38:07;;;;;;;;;3.00;1.75;;;;;8.83;73.97;101077.94;5117600;28;8820;-61
2023/05/26 01:40:34;;;;;;;;;1.00;1.00;;;;;8.80;74.04;101085.25;5117339;28;8843;-62
2023/05/26 01:43:02;;;;;;;;;2.00;1.50;;;;;8.76;73.66;101073.94;5117092;28;8970;-60
2023/05/26 01:45:30;;;;;;;;;0.50;0.50;;;;;8.74;74.07;101081.09;5117633;28;8954;-60
2023/05/26 01:47:58;;;;;;;;;3.75;2.50;;;;;8.73;73.87;101081.19;5117282;28;8970;-60
2023/05/26 01:50:25;;;;;;;;;0.00;0.00;;;;;8.74;73.88;101081.09;5117421;28;9486;-60
2023/05/26 01:52:53;;;;;;;;;2.00;1.00;;;;;8.76;74.00;101081.88;5116714;28;8852;-60
2023/05/26 01:55:21;;;;;;;;;0.50;0.00;;;;;8.78;73.60;101076.47;5117242;28;9621;-59
2023/05/26 01:57:49;;;;;;;;;4.25;3.00;;;;;8.82;73.56;101080.69;5117312;28;8837;-59
2023/05/26 02:00:17;;;;;;;;;3.25;2.00;;;;;8.84;73.67;101087.63;5116903;28;8859;-61
2023/05/26 02:02:44;;;;;;;;;3.50;0.75;;;;;8.86;73.70;101075.13;5117242;28;8938;-62
2023/05/26 02:05:12;;;;;;;;;1.00;0.50;;;;;8.88;73.19;101075.88;5117338;28;8974;-60
2023/05/26 02:07:40;;;;;;;;;2.50;1.00;;;;;8.89;73.45;101074.94;5116975;28;8835;-60
2023/05/26 02:10:08;;;;;;;;;0.00;0.00;;;;;8.93;72.98;101083.59;5117000;28;8854;-60
2023/05/26 02:12:36;;;;;;;;;1.50;1.00;;;;;8.94;73.23;101082.66;5117027;28;8967;-60
2023/05/26 02:15:04;;;;;;;;;1.00;1.00;;;;;8.97;73.41;101077.19;5116820;28;8836;-60
2023/05/26 02:17:32;;;;;;;;;1.00;1.00;;;;;8.99;73.01;101081.50;5116827;28;8823;-60
2023/05/26 02:20:00;;;;;;;;;1.00;1.00;;;;;9.03;72.89;101071.56;5117040;28;9587;-60
2023/05/26 02:22:28;;;;;;;;;1.00;1.00;;;;;9.06;73.17;101076.69;5117425;28;8834;-60
2023/05/26 02:24:57;;;;;;;;;3.00;1.50;;;;;9.09;72.68;101072.06;5116906;28;8816;-62
2023/05/26 02:27:24;;;;;;;;;3.75;1.50;;;;;9.13;72.47;101068.28;5116616;28;8824;-59
2023/05/26 02:29:52;;;;;;;;;1.00;1.00;;;;;9.15;72.88;101071.72;5116511;28;8847;-59
2023/05/26 02:32:20;;;;;;;;;3.25;3.00;;;;;9.16;72.45;101064.59;5116377;28;8958;-60
2023/05/26 02:34:48;;;;;;;;;4.00;1.00;;;;;9.18;72.88;101076.03;5116751;28;8840;-59
2023/05/26 02:37:17;;;;;;;;;1.00;1.00;;;;;9.19;72.21;101070.59;5116798;28;9547;-60
2023/05/26 02:39:44;;;;;;;;;3.50;3.50;;;;;9.23;72.43;101069.50;5116885;28;8912;-61
2023/05/26 02:42:12;;;;;;;;;1.50;1.00;;;;;9.25;72.43;101064.94;5116751;28;9640;-61
2023/05/26 02:44:40;;;;;;;;;0.00;0.00;;;;;9.28;72.37;101078.03;5116499;28;8847;-59
2023/05/26 02:47:08;;;;;;;;;1.00;1.00;;;;;9.30;72.40;101076.19;5116596;28;8943;-60
2023/05/26 02:49:35;;;;;;;;;3.50;3.50;;;;;9.31;72.49;101080.56;5116444;28;8824;-60
2023/05/26 02:52:03;;;;;;;;;1.00;1.00;;;;;9.32;72.58;101078.72;5116216;28;8832;-61
2023/05/26 02:54:31;;;;;;;;;2.00;1.00;;;;;9.32;72.33;101073.41;5116528;28;8863;-60
2023/05/26 02:56:58;;;;;;;;;2.50;2.50;;;;;9.30;72.45;101073.53;5120340;28;8848;-60
2023/05/26 02:59:27;;;;;;;;;1.00;1.00;;;;;9.25;72.87;101070.25;5121313;28;8946;-61
2023/05/26 03:01:55;;;;;;;;;1.00;0.00;;;;;9.22;72.88;101072.22;5120514;28;8971;-60
2023/05/26 03:04:22;;;;;;;;;1.50;1.00;;;;;9.16;72.87;101056.63;5120464;28;8858;-60
2023/05/26 03:06:50;;;;;;;;;1.00;1.00;;;;;9.12;72.93;101071.88;5120860;28;8970;-60
2023/05/26 03:09:18;;;;;;;;;3.00;2.00;;;;;9.08;72.84;101069.47;5120646;28;8820;-60
2023/05/26 03:11:46;;;;;;;;;1.00;1.00;;;;;9.02;73.42;101068.03;5120531;28;8840;-61
2023/05/26 03:14:14;;;;;;;;;1.00;1.00;;;;;9.00;73.16;101074.34;5120091;28;8954;-60
2023/05/26 03:16:43;;;;;;;;;3.25;3.25;;;;;8.96;73.22;101073.66;5120007;28;8847;-60
2023/05/26 03:19:11;;;;;;;;;1.00;1.00;;;;;8.94;73.43;101077.34;5120239;28;8830;-60
2023/05/26 03:21:40;;;;;;;;;3.25;3.25;;;;;8.92;73.42;101080.13;5120120;28;8924;-61
2023/05/26 03:24:16;;;;;;;;;4.00;4.00;;;;;8.94;73.31;101080.00;5120380;28;8966;-61
2023/05/26 03:26:44;;;;;;;;;3.25;3.25;;;;;8.94;73.41;101080.88;5120144;28;8935;-62
2023/05/26 03:29:11;;;;;;;;;1.00;1.00;;;;;8.98;73.37;101079.75;5119795;28;8845;-60
2023/05/26 03:31:39;;;;;;;;;4.00;3.00;;;;;9.02;73.14;101083.09;5119870;28;8847;-61
2023/05/26 03:34:07;;;;;;;;;1.00;1.00;;;;;9.03;72.87;101080.38;5119612;28;8843;-61
2023/05/26 03:36:36;;;;;;;;;2.50;0.75;;;;;9.07;73.09;101084.59;5119391;28;8954;-61
2023/05/26 03:39:04;;;;;;;;;4.00;3.25;;;;;9.10;73.28;101087.06;5119971;28;9481;-60
2023/05/26 03:41:33;;;;;;;;;0.75;0.75;;;;;9.11;72.87;101086.09;5119367;28;8843;-60
2023/05/26 03:44:00;;;;;;;;;4.00;3.50;;;;;9.12;73.14;101090.47;5119509;28;8844;-60
2023/05/26 03:46:28;;;;;;;;;3.25;2.50;;;;;9.09;73.32;101088.00;5119793;28;8835;-60
2023/05/26 03:48:56;;;;;;;;;3.50;3.50;;;;;9.10;72.96;101086.19;5119997;28;8812;-61
2023/05/26 03:51:23;;;;;;;;;1.00;1.00;;;;;9.11;72.81;101085.28;5119549;28;8835;-61
2023/05/26 03:53:51;;;;;;;;;3.00;3.00;;;;;9.13;73.21;101089.53;5119645;28;8958;-63
2023/05/26 03:56:19;;;;;;;;;2.50;1.50;;;;;9.18;73.08;101097.28;5119332;28;8820;-60
2023/05/26 03:58:47;;;;;;;;;3.50;1.00;;;;;9.23;73.01;101089.88;5119071;28;8855;-61
2023/05/26 04:01:16;;;;;;;;;1.00;1.00;;;;;9.29;72.64;101087.75;5118553;28;8832;-60
2023/05/26 04:03:43;;;;;;;;;1.50;1.50;;;;;9.36;72.83;101097.09;5118764;28;8824;-60
2023/05/26 04:06:15;;;;;;;;;3.00;3.00;;;;;9.41;72.45;101094.19;5118936;28;8847;-61
2023/05/26 04:08:43;;;;;;;;;3.50;3.00;;;;;9.44;72.34;101094.00;5119190;28;8938;-60
2023/05/26 04:11:10;;;;;;;;;1.00;1.00;;;;;9.48;71.96;101096.41;5118953;28;9568;-63
2023/05/26 04:13:39;;;;;;;;;0.75;0.75;;;;;9.53;72.60;101094.34;5118895;28;8855;-61
2023/05/26 04:16:06;;;;;;;;;0.25;0.00;;;;;9.58;72.37;101097.56;5119069;28;9517;-62
2023/05/26 04:18:34;;;;;;;;;3.00;3.00;;;;;9.62;71.92;101104.44;5119135;28;8824;-61
2023/05/26 04:21:02;;;;;;;;;3.67;3.33;;;;;9.68;72.12;101106.75;5119164;28;8962;-63
2023/05/26 04:23:30;;;;;;;;;0.00;0.00;;;;;9.74;71.95;101100.22;5118708;28;8827;-62
2023/05/26 04:25:58;;;;;;;;;2.00;2.00;;;;;9.78;71.90;101099.97;5119077;28;9702;-62
2023/05/26 04:28:26;;;;;;;;;1.00;1.00;;;;;9.81;72.01;101107.75;5118490;28;8820;-61
2023/05/26 04:30:53;;;;;;;;;3.50;2.50;;;;;9.86;71.93;101110.19;5118682;28;8947;-60
2023/05/26 04:33:22;;;;;;;;;5.50;5.00;;;;;9.91;71.87;101111.63;5118349;28;8966;-60
2023/05/26 04:35:50;;;;;;;;;1.50;1.50;;;;;9.91;71.78;101110.75;5118480;28;8836;-61
2023/05/26 04:38:20;;;;;;;;;3.00;3.00;;;;;9.87;72.14;101115.38;5118365;28;8831;-60
2023/05/26 04:40:48;;;;;;;;;6.00;3.25;;;;;9.89;71.71;101113.50;5118027;28;8820;-61
2023/05/26 04:43:15;;;;;;;;;2.50;2.50;;;;;9.88;71.97;101117.09;5118113;28;8836;-62
2023/05/26 04:45:44;;;;;;;;;1.00;1.00;;;;;9.90;71.78;101115.22;5118524;28;8850;-63
2023/05/26 04:48:12;;;;;;;;;1.00;1.00;;;;;9.93;71.75;101119.50;5118777;28;8836;-61
2023/05/26 04:50:40;;;;;;;;;3.00;2.50;;;;;9.94;71.81;101116.75;5118193;28;8940;-61
2023/05/26 04:53:09;;;;;;;;;1.00;1.00;;;;;9.98;71.69;101115.63;5118205;28;8859;-60
2023/05/26 04:55:37;;;;;;;;;7.00;4.00;;;;;10.00;72.21;101119.06;5118072;28;8858;-59
2023/05/26 04:58:06;;;;;;;;;1.50;1.50;;;;;10.00;71.63;101116.38;5118113;28;8852;-59
2023/05/26 05:00:34;;;;;;;;;4.00;4.00;;;;;10.02;71.97;101124.28;5117943;28;8916;-60
2023/05/26 05:03:03;;;;;;;;;3.00;3.00;;;;;10.00;72.07;101113.72;5117966;28;8876;-60
2023/05/26 05:05:31;;;;;;;;;1.00;1.00;;;;;9.99;71.68;101125.31;5117949;28;8982;-60
2023/05/26 05:07:59;;;;;;;;;3.50;3.50;;;;;10.01;71.71;101115.44;5117671;28;8836;-63
2023/05/26 05:10:26;;;;;;;;;1.00;1.00;;;;;10.02;71.93;101118.97;5118075;28;9525;-60
2023/05/26 05:12:54;;;;;;;;;3.50;1.00;;;;;10.05;71.85;101114.38;5117543;28;8812;-60
2023/05/26 05:15:22;;;;;;;;;3.50;3.50;;;;;10.10;71.61;101114.94;5117627;28;9528;-59
2023/05/26 05:17:50;;;;;;;;;3.75;3.50;;;;;10.16;72.07;101117.22;5116697;28;8890;-60
2023/05/26 05:20:18;;;;;;;;;8.00;7.00;;;;;10.24;71.73;101114.13;5117554;28;8843;-61
2023/05/26 05:22:46;;;;;;;;;6.00;4.00;;;;;10.32;71.09;101115.38;5117421;28;8962;-62
2023/05/26 05:25:14;;;;;;;;;3.50;3.50;;;;;10.38;71.64;101117.66;5116858;28;8905;-60
2023/05/26 05:27:42;;;;;;;;;6.50;6.50;;;;;10.46;71.31;101120.72;5116446;28;8840;-60
2023/05/26 05:30:11;;;;;;;;;7.00;5.00;;;;;10.51;71.19;101123.09;5115499;28;8997;-62
2023/05/26 05:32:39;;;;;;;;;4.00;4.00;;;;;10.60;71.11;101125.22;5114795;28;8843;-59
2023/05/26 05:35:06;;;;;;;;;4.50;4.50;;;;;10.66;70.70;101125.72;5115504;28;8832;-60
2023/05/26 05:37:34;;;;;;;;;5.00;3.50;;;;;10.69;71.01;101124.69;5115575;28;8862;-59
2023/05/26 05:40:03;;;;;;;;;4.75;3.75;;;;;10.73;71.27;101128.84;5115847;28;9594;-59
2023/05/26 05:42:30;;;;;;;;;4.00;4.00;;;;;10.75;71.24;101134.94;5115858;28;8905;-60
2023/05/26 05:44:58;;;;;;;;;3.25;3.00;;;;;10.78;70.95;101135.59;5116224;28;8827;-60
2023/05/26 05:47:29;;;;;;;;;9.00;5.50;;;;;10.79;70.94;101140.00;5116023;28;8994;-62
2023/05/26 05:49:57;;;;;;;;;4.50;4.25;;;;;10.84;70.58;101134.41;5116304;28;8844;-60
2023/05/26 05:52:25;;;;;;;;;3.75;3.75;;;;;10.83;70.84;101136.19;5115676;28;9618;-60
2023/05/26 05:54:53;;;;;;;;;3.50;3.00;;;;;10.85;70.98;101139.59;5116187;28;8840;-60
2023/05/26 05:57:20;;;;;;;;;4.00;3.25;;;;;10.89;71.15;101142.94;5115772;28;8843;-61
2023/05/26 05:59:48;;;;;;;;;4.00;3.50;;;;;10.90;71.28;101148.19;5115643;28;8824;-61
2023/05/26 06:02:16;;;;;;;;;4.00;3.25;;;;;10.91;70.85;101147.22;5115540;28;8906;-60
2023/05/26 06:04:44;;;;;;;;;6.00;4.50;;;;;10.93;70.71;101155.97;5114248;28;8852;-60
2023/05/26 06:07:12;;;;;;;;;8.75;8.00;;;;;10.96;71.05;101155.81;5113675;28;8848;-61
2023/05/26 06:09:39;;;;;;;;;4.00;4.00;;;;;10.99;70.91;101155.59;5114111;28;8859;-59
2023/05/26 06:12:07;;;;;;;;;4.50;4.00;;;;;11.03;70.97;101159.81;5113593;28;8847;-60
2023/05/26 06:14:38;;;;;;;;;8.50;6.75;;;;;11.06;70.62;101159.59;5114467;28;8993;-60
2023/05/26 06:17:06;;;;;;;;;3.00;1.00;;;;;11.04;71.05;101158.84;5115084;28;8831;-60
2023/05/26 06:19:34;;;;;;;;;8.50;7.00;;;;;11.04;70.98;101161.50;5114318;28;8840;-60
2023/05/26 06:22:01;;;;;;;;;1.00;0.75;;;;;11.06;70.51;101148.94;5115287;28;8824;-60
2023/05/26 06:24:29;;;;;;;;;6.50;6.25;;;;;11.09;70.65;101159.41;5115238;28;9652;-60
2023/05/26 06:26:57;;;;;;;;;3.50;3.50;;;;;11.16;70.53;101157.22;5115258;28;8958;-60
2023/05/26 06:29:25;;;;;;;;;6.75;6.00;;;;;11.22;70.83;101159.50;5115025;28;8955;-60
2023/05/26 06:31:53;;;;;;;;;7.00;6.00;;;;;11.27;70.82;101152.94;5115048;28;9612;-60
2023/05/26 06:34:21;;;;;;;;;1.00;0.50;;;;;11.35;70.36;101163.97;5115033;28;8871;-59
2023/05/26 06:36:50;;;;;;;;;6.25;6.25;;;;;11.41;69.94;101160.06;5114818;28;8962;-60
2023/05/26 06:39:17;;;;;;;;;7.50;6.50;;;;;11.47;69.99;101157.88;5115064;28;8870;-61
2023/05/26 06:41:45;;;;;;;;;8.50;7.00;;;;;11.52;70.01;101169.06;5114878;28;8971;-59
2023/05/26 06:44:13;;;;;;;;;7.00;5.50;;;;;11.57;70.19;101167.00;5114869;28;8878;-59
2023/05/26 06:46:41;;;;;;;;;7.00;6.75;;;;;11.59;70.02;101174.94;5114997;28;8924;-61
2023/05/26 06:49:09;;;;;;;;;6.50;6.25;;;;;11.61;69.65;101179.19;5114712;28;8827;-60
2023/05/26 06:51:37;;;;;;;;;8.00;6.75;;;;;11.63;70.38;101177.31;5114135;28;8836;-60
2023/05/26 06:54:05;;;;;;;;;9.00;7.00;;;;;11.67;69.83;101177.97;5113689;28;8836;-60
2023/05/26 06:56:33;;;;;;;;;9.50;7.00;;;;;11.65;70.13;101186.06;5113285;28;8844;-60
2023/05/26 06:59:01;;;;;;;;;7.75;7.50;;;;;11.68;69.92;101177.84;5113629;28;9667;-59
2023/05/26 07:01:28;;;;;;;;;6.25;6.00;;;;;11.73;69.84;101185.53;5113436;28;8823;-59
2023/05/26 07:03:56;;;;;;;;;3.25;3.00;;;;;11.75;69.72;101181.00;5113488;28;8835;-59
2023/05/26 07:06:24;;;;;;;;;3.50;3.50;;;;;11.79;69.79;101177.16;5114011;28;8936;-60
2023/05/26 07:09:10;;;;;;;;;9.75;8.00;;;;;11.80;69.49;101187.75;5114071;28;8855;-60
2023/05/26 07:11:38;;;;;;;;;9.00;9.00;;;;;11.88;69.64;101192.56;5114293;28;8820;-61
2023/05/26 07:14:05;;;;;;;;;6.25;6.25;;;;;11.90;69.80;101193.34;5114860;28;9583;-60
2023/05/26 07:16:33;;;;;;;;;9.50;7.00;;;;;11.92;69.47;101205.63;5115011;28;8896;-60
2023/05/26 07:19:02;;;;;;;;;1.50;0.75;;;;;11.92;69.49;101200.31;5114628;28;8832;-62
2023/05/26 07:21:31;;;;;;;;;9.00;8.50;;;;;11.93;69.37;101205.53;5114388;28;9734;-61
2023/05/26 07:23:58;;;;;;;;;11.00;8.75;;;;;11.97;69.46;101208.84;5114299;28;8824;-60
2023/05/26 07:26:26;;;;;;;;;7.00;6.75;;;;;12.01;69.55;101211.22;5114450;28;8831;-59
2023/05/26 07:28:54;;;;;;;;;9.25;8.25;;;;;12.07;69.59;101220.66;5113079;28;8856;-60
2023/05/26 07:31:25;;;;;;;;;7.75;6.00;;;;;12.13;69.40;101214.91;5113450;28;8842;-60
2023/05/26 07:33:52;;;;;;;;;6.00;4.00;;;;;12.17;69.07;101217.25;5112912;28;8879;-60
2023/05/26 07:36:20;;;;;;;;;8.50;7.50;;;;;12.24;69.50;101215.91;5113347;28;8958;-60
2023/05/26 07:38:48;;;;;;;;;6.75;6.00;;;;;12.32;68.86;101210.06;5112331;28;8856;-60
2023/05/26 07:41:17;;;;;;;;;9.50;8.50;;;;;12.39;69.00;101211.38;5114614;28;8878;-60
2023/05/26 07:43:44;;;;;;;;;13.00;10.00;;;;;12.40;68.50;101218.41;5117346;28;8824;-60
2023/05/26 07:46:12;;;;;;;;;12.50;11.00;;;;;12.43;68.69;101215.53;5116759;28;8836;-61
2023/05/26 07:48:40;;;;;;;;;9.00;6.75;;;;;12.47;68.88;101211.72;5117029;28;9614;-61
2023/05/26 07:51:08;;;;;;;;;7.00;6.75;;;;;12.44;69.08;101214.56;5116516;28;8836;-60
2023/05/26 07:53:36;;;;;;;;;16.00;11.00;;;;;12.45;68.60;101214.47;5116921;28;9506;-61
2023/05/26 07:56:04;;;;;;;;;13.00;7.00;;;;;12.50;68.80;101209.69;5117630;28;8836;-60
2023/05/26 07:58:32;;;;;;;;;7.50;6.75;;;;;12.62;68.41;101208.00;5117793;28;9533;-61
2023/05/26 08:00:59;;;;;;;;;6.00;6.00;;;;;12.72;68.41;101209.09;5117716;28;9813;-60
2023/05/26 08:03:28;;;;;;;;;7.00;6.25;;;;;12.84;68.14;101213.59;5117123;28;8842;-60
2023/05/26 08:05:57;;;;;;;;;12.75;10.00;;;;;12.92;68.02;101211.25;5117629;28;8832;-60
2023/05/26 08:08:31;;;;;;;;;12.75;11.50;;;;;13.04;67.87;101210.41;5117349;28;8855;-60
2023/05/26 08:10:59;;;;;;;;;5.00;5.00;;;;;13.20;67.45;101200.41;5117082;28;8965;-60
2023/05/26 08:13:27;;;;;;;;;15.25;11.25;;;;;13.42;66.99;101203.22;5117043;28;8828;-60
2023/05/26 08:15:54;;;;;;;;;8.50;7.00;;;;;13.65;66.83;101197.09;5116463;28;8835;-59
2023/05/26 08:18:23;;;;;;;;;9.50;8.00;;;;;13.84;66.38;101193.00;5118017;28;8966;-60
2023/05/26 08:20:52;;;;;;;;;8.00;7.50;;;;;14.00;66.13;101195.38;5117784;28;8836;-60
2023/05/26 08:23:20;;;;;;;;;2.75;2.75;;;;;14.15;65.92;101192.44;5117759;28;9517;-60
2023/05/26 08:25:48;;;;;;;;;11.50;10.00;;;;;14.21;65.54;101188.47;5117675;28;8885;-60
2023/05/26 08:28:16;;;;;;;;;6.25;6.00;;;;;14.24;65.09;101194.47;5117741;28;8878;-60
2023/05/26 08:30:44;;;;;;;;;9.50;8.50;;;;;14.28;65.11;101193.25;5117238;28;8887;-61
2023/05/26 08:33:12;;;;;;;;;8.00;7.50;;;;;14.36;65.80;101195.38;5117085;28;8847;-60
2023/05/26 08:35:40;;;;;;;;;4.50;3.75;;;;;14.53;65.59;101187.75;5117398;28;9521;-59
2023/05/26 08:38:07;;;;;;;;;8.00;7.00;;;;;14.71;65.07;101183.66;5117178;28;8828;-60
2023/05/26 08:40:35;;;;;;;;;4.00;4.00;;;;;14.82;64.46;101191.75;5116995;28;8856;-60
2023/05/26 08:43:04;;;;;;;;;9.50;8.50;;;;;14.93;64.67;101193.56;5117553;28;8854;-60
2023/05/26 08:45:32;;;;;;;;;7.50;6.75;;;;;15.00;64.45;101193.00;5116848;28;8828;-61
2023/05/26 08:48:00;;;;;;;;;8.00;7.00;;;;;15.13;63.82;101190.19;5117282;28;9497;-60
2023/05/26 08:50:28;;;;;;;;;9.75;9.25;;;;;15.25;64.05;101187.41;5117644;28;8923;-61
2023/05/26 08:52:56;;;;;;;;;9.25;9.00;;;;;15.25;63.85;101189.25;5115938;28;8840;-59
2023/05/26 08:55:33;;;;;;;;;9.50;9.25;;;;;15.17;64.46;101189.00;5117708;28;8851;-61
2023/05/26 08:58:00;;;;;;;;;4.00;4.00;;;;;15.11;63.92;101201.03;5117619;28;8832;-59
2023/05/26 09:00:30;;;;;;;;;7.00;6.50;;;;;15.09;64.15;101199.47;5117654;28;8840;-60
2023/05/26 09:02:58;;;;;;;;;11.75;11.00;;;;;15.15;64.33;101198.97;5107602;28;8835;-60
2023/05/26 09:05:26;;;;;;;;;6.00;6.00;;;;;15.18;64.22;101196.06;5115628;28;8844;-60
2023/05/26 09:07:54;;;;;;;;;8.50;8.50;;;;;15.22;64.52;101194.84;5115619;28;8958;-60
2023/05/26 09:10:22;;;;;;;;;9.00;7.50;;;;;15.24;64.36;101193.75;5115331;28;8831;-60
2023/05/26 09:12:50;;;;;;;;;10.50;9.25;;;;;15.40;63.91;101190.75;5114422;28;8854;-60
2023/05/26 09:15:19;;;;;;;;;7.00;7.00;;;;;15.58;63.79;101183.91;5114753;28;8832;-60
2023/05/26 09:17:47;;;;;;;;;9.50;8.00;;;;;15.80;62.72;101195.50;5115126;28;8924;-60
2023/05/26 09:20:15;;;;;;;;;10.25;9.50;;;;;16.16;62.44;101197.81;5115158;28;8847;-61
2023/05/26 09:22:43;;;;;;;;;1.00;0.25;;;;;16.56;61.77;101183.66;5115546;28;8862;-60
2023/05/26 09:25:11;;;;;;;;;8.75;8.75;;;;;16.97;61.00;101186.38;5115790;28;8866;-60
2023/05/26 09:27:41;;;;;;;;;10.50;10.50;;;;;17.31;59.88;101179.72;5115703;28;8924;-60
2023/05/26 09:30:08;;;;;;;;;12.25;10.50;;;;;17.61;59.02;101185.13;5115337;28;8928;-61
2023/05/26 09:32:37;;;;;;;;;12.00;10.25;;;;;17.78;58.48;101176.41;5114637;28;8827;-61
2023/05/26 09:35:05;;;;;;;;;15.20;14.60;;;;;17.91;58.53;101176.16;5114399;28;8856;-60
2023/05/26 09:37:33;;;;;;;;;16.00;13.00;;;;;17.94;58.99;101178.56;5115598;28;8820;-61
2023/05/26 09:40:01;;;;;;;;;12.20;10.40;;;;;17.93;58.44;101183.09;5115668;28;8869;-60
2023/05/26 09:42:29;;;;;;;;;11.20;9.40;;;;;17.92;58.96;101175.19;5115745;28;8994;-60
2023/05/26 09:44:57;;;;;;;;;9.60;9.60;;;;;17.95;58.74;101182.97;5115564;28;8836;-60
2023/05/26 09:47:25;;;;;;;;;10.40;10.40;;;;;17.98;58.97;101174.63;5115401;28;8928;-60
2023/05/26 09:49:53;;;;;;;;;12.60;12.20;;;;;17.84;59.48;101183.09;5115580;28;8858;-60
2023/05/26 09:52:21;;;;;;;;;7.00;6.00;;;;;17.82;59.18;101177.84;5115776;28;8969;-61
2023/05/26 09:54:49;;;;;;;;;7.00;7.00;;;;;17.85;58.83;101179.41;5115526;28;8851;-61
2023/05/26 09:57:17;;;;;;;;;10.80;10.80;;;;;17.77;59.22;101185.47;5115343;28;8846;-60
2023/05/26 09:59:44;;;;;;;;;10.00;10.00;;;;;17.80;59.62;101182.53;5115276;28;8848;-61
2023/05/26 10:02:12;;;;;;;;;11.60;10.80;;;;;17.72;60.00;101185.06;5114996;28;8840;-61
2023/05/26 10:04:40;;;;;;;;;9.60;9.60;;;;;17.63;59.76;101191.25;5114249;28;8878;-60
2023/05/26 10:07:09;;;;;;;;;9.40;9.20;;;;;17.62;59.69;101197.63;5114713;28;8919;-60
2023/05/26 10:09:37;;;;;;;;;8.60;8.60;;;;;17.83;59.65;101190.31;5114558;28;8970;-60
2023/05/26 10:12:06;;;;;;;;;15.00;12.20;;;;;18.41;58.88;101178.69;5114714;28;8839;-61
2023/05/26 10:14:38;;;;;;;;;10.00;9.20;;;;;18.69;58.05;101174.25;5114207;28;8843;-60
2023/05/26 10:17:06;;;;;;;;;9.00;6.80;;;;;19.03;57.26;101173.63;5114515;28;8915;-61
2023/05/26 10:19:34;;;;;;;;;9.40;7.80;;;;;19.30;57.29;101173.75;5114686;28;8824;-60
2023/05/26 10:22:02;;;;;;;;;10.80;10.00;;;;;19.81;56.03;101178.63;5114920;28;8851;-61
2023/05/26 10:24:30;;;;;;;;;11.00;10.00;;;;;20.30;55.24;101170.94;5114339;28;8835;-61
2023/05/26 10:26:57;;;;;;;;;7.80;6.60;;;;;20.89;54.55;101173.84;5113982;28;8839;-60
2023/05/26 10:29:25;;;;;;;;;11.40;10.20;;;;;21.38;53.22;101165.88;5114457;28;9513;-61
2023/05/26 10:31:53;;;;;;;;;11.20;11.00;;;;;21.76;53.06;101160.00;5114623;28;8858;-60
2023/05/26 10:34:21;;;;;;;;;8.80;8.40;;;;;22.08;52.20;101164.69;5114693;28;8878;-60
2023/05/26 10:36:49;;;;;;;;;11.00;10.20;;;;;22.35;52.16;101156.25;5114585;28;8839;-60
2023/05/26 10:39:17;;;;;;;;;9.40;9.40;;;;;22.32;52.64;101156.59;5114596;28;8839;-62
2023/05/26 10:41:45;;;;;;;;;12.20;11.00;;;;;22.63;52.04;101158.50;5114642;28;8828;-61
2023/05/26 10:44:12;;;;;;;;;12.40;11.20;;;;;22.70;51.39;101156.78;5115142;28;8866;-62
2023/05/26 10:46:40;;;;;;;;;10.20;9.00;;;;;22.58;52.39;101157.31;5113454;28;8881;-61
2023/05/26 10:49:08;;;;;;;;;8.40;8.20;;;;;22.30;52.83;101155.91;5114043;28;8846;-60
2023/05/26 10:51:36;;;;;;;;;11.40;9.20;;;;;21.95;53.05;101153.44;5113322;28;9681;-61
2023/05/26 10:54:06;;;;;;;;;9.20;8.80;;;;;22.02;53.31;101158.03;5113405;28;9512;-61
2023/05/26 10:56:34;;;;;;;;;7.20;6.00;;;;;22.57;52.47;101155.63;5113039;28;8820;-60
2023/05/26 10:59:02;;;;;;;;;10.20;9.00;;;;;23.09;50.47;101146.06;5112757;28;8836;-60
2023/05/26 11:01:30;;;;;;;;;9.00;8.40;;;;;23.54;50.08;101140.88;5112968;28;8832;-60
2023/05/26 11:03:57;;;;;;;;;6.00;5.00;;;;;23.87;49.68;101142.44;5104538;28;10001;-61
2023/05/26 11:06:25;;;;;;;;;6.00;5.00;;;;;23.77;49.97;101137.22;5112635;28;8867;-60
2023/05/26 11:08:54;;;;;;;;;9.00;8.00;;;;;23.81;49.97;101138.53;5113013;28;8855;-61
2023/05/26 11:11:22;;;;;;;;;6.80;6.80;;;;;23.97;49.40;101132.22;5114077;28;8839;-61
2023/05/26 11:13:50;;;;;;;;;6.60;6.00;;;;;23.56;50.31;101142.41;5113961;28;8855;-60
2023/05/26 11:16:18;;;;;;;;;7.20;5.60;;;;;23.64;50.32;101142.38;5115138;28;8974;-60
2023/05/26 11:18:47;;;;;;;;;8.80;8.40;;;;;24.12;49.59;101135.88;5118148;28;8836;-60
2023/05/26 11:21:15;;;;;;;;;10.60;9.20;;;;;24.41;49.00;101141.47;5118675;28;8831;-60
2023/05/26 11:23:42;;;;;;;;;7.20;7.20;;;;;24.06;49.90;101139.28;5118414;28;8831;-60
2023/05/26 11:26:10;;;;;;;;;6.00;6.00;;;;;23.32;51.34;101145.22;5116733;28;8924;-60
2023/05/26 11:28:38;;;;;;;;;6.60;5.80;;;;;23.26;51.80;101137.75;5116145;28;8836;-60
2023/05/26 11:31:06;;;;;;;;;6.80;6.00;;;;;23.05;51.71;101147.41;5115985;28;8843;-61
2023/05/26 11:33:34;;;;;;;;;6.80;6.00;;;;;22.53;52.95;101137.97;5115976;28;8827;-60
2023/05/26 11:36:02;;;;;;;;;9.80;8.60;;;;;22.10;54.07;101143.66;5115410;28;8940;-61
2023/05/26 11:38:31;;;;;;;;;6.00;6.00;;;;;22.00;53.64;101148.38;5115327;28;8828;-61